Latest Weather Observations for Port Macquarie Airport

IDN60801

Issued at 2:32 pm EDT Monday 20 February 2017 (issued every 30 minutes, with the page automatically refreshed every 10 minutes)

About weather observations | Map of weather stations | Latest weather observations for NSW | Other Formats
Station Details ID: 060139 Name: PORT MACQUARIE AIRPORT AWS Lat: -31.43 Lon: 152.87 Height: 4.2 m
Data from the previous 72 hours. | See also: Recent months at Port Macquarie Airport
Date/Time
EDT
Temp
°C
App
Temp
°C
Dew
Point
°C
Rel
Hum
%
Delta-T
°C
Wind Press
QNH
hPa
Press
MSL
hPa
Rain since
9am
mm
Dir  Spd
km/h
Gust
km/h
Spd
kts
Gust
kts
20/02:30pm 25.6 22.4 9.8 37 8.7 ESE 17 22 9 12 1010.7 1010.7 0.0
20/02:00pm 25.5 21.9 9.7 37 8.7 SE 19 26 10 14 1010.8 1010.8 0.0
20/01:30pm 24.7 20.4 7.8 34 8.9 SE 20 24 11 13 1011.2 1011.2 0.0
20/01:00pm 24.9 20.8 8.0 34 9.0 SSE 19 24 10 13 1011.3 1011.3 0.0
20/12:30pm 24.4 20.0 7.5 34 8.9 S 20 28 11 15 1011.5 1011.5 0.0
20/12:00pm 24.9 21.3 10.0 39 8.2 SSE 19 24 10 13 1011.8 1011.8 0.0
20/11:30am 24.3 20.5 9.1 38 8.2 SSE 19 24 10 13 1012.0 1012.0 0.0
20/11:00am 24.8 22.3 12.4 46 7.1 SE 17 24 9 13 1012.1 1012.1 0.0
20/10:30am 24.7 23.0 8.2 35 8.8 SE 7 13 4 7 1012.2 1012.2 0.0
20/10:00am 23.9 21.5 8.7 38 8.1 WSW 11 17 6 9 1012.0 1012.0 0.0
20/09:30am 23.2 21.3 10.6 45 7.0 WSW 11 17 6 9 1011.8 1011.8 0.0
20/09:00am 22.2 21.5 13.3 57 5.1 WSW 9 15 5 8 1011.5 1011.5 16.0
20/08:30am 20.6 20.4 15.6 73 3.0 W 11 15 6 8 1011.1 1011.1 16.0
20/08:00am 18.4 19.5 16.6 89 1.1 W 6 11 3 6 1010.8 1010.8 16.0
20/07:30am 17.5 19.5 17.0 97 0.3 W 2 9 1 5 1010.5 1010.5 16.0
20/07:00am 16.3 16.9 15.8 97 0.3 WNW 7 9 4 5 1010.0 1010.0 16.0
20/06:53am 16.1 16.2 15.6 97 0.3 NW 9 11 5 6 1010.0 1010.0 16.0
20/06:30am 15.9 17.6 15.1 95 0.5 CALM 0 0 0 0 1009.5 1009.5 16.0
20/06:07am 16.9 18.9 16.1 95 0.5 CALM 0 0 0 0 1009.5 1009.5 16.0
20/06:00am 16.6 18.4 15.6 94 0.6 CALM 0 0 0 0 1009.3 1009.3 16.0
20/05:30am 17.5 19.0 16.7 95 0.5 SW 4 9 2 5 1008.5 1008.5 15.8
20/05:00am 18.5 21.2 17.7 95 0.5 CALM 0 0 0 0 1008.0 1008.0 15.8
20/04:30am 19.2 21.5 18.5 96 0.4 NW 4 7 2 4 1007.6 1007.6 15.8
20/04:00am 19.6 21.1 18.9 96 0.4 NNE 9 11 5 6 1007.2 1007.2 15.8
20/03:30am 18.6 19.7 17.9 96 0.4 NW 9 11 5 6 1006.7 1006.7 15.8
20/03:00am 18.9 20.4 18.1 95 0.5 WNW 7 9 4 5 1007.0 1007.0 15.8
20/02:30am 19.3 21.0 18.5 95 0.5 SSW 7 9 4 5 1006.5 1006.5 15.8
20/02:00am 19.8 21.8 18.8 94 0.6 NNW 6 7 3 4 1006.6 1006.6 15.8
20/01:30am 19.8 21.6 18.8 94 0.6 N 7 11 4 6 1005.9 1005.9 15.8
20/01:00am 19.7 21.6 18.5 93 0.7 NW 6 9 3 5 1005.8 1005.8 15.8
20/12:30am 20.0 20.9 19.2 95 0.5 NNW 13 17 7 9 1006.1 1006.1 15.8
20/12:00am 20.1 19.7 18.8 92 0.8 NNW 19 28 10 15 1006.4 1006.4 15.8
 
Date/Time
EDT
Temp
°C
App
Temp
°C
Dew
Point
°C
Rel
Hum
%
Delta-T
°C
Wind Press
QNH
hPa
Press
MSL
hPa
Rain since
9am
mm
Dir  Spd
km/h
Gust
km/h
Spd
kts
Gust
kts
19/11:30pm 20.6 20.1 19.1 91 0.9 NNE 20 28 11 15 1006.1 1006.1 15.8
19/11:00pm 21.1 21.4 19.7 92 0.9 N 17 20 9 11 1007.9 1007.9 15.2
19/10:30pm 21.5 22.3 20.7 95 0.5 NNE 17 20 9 11 1008.1 1008.1 15.0
19/10:00pm 21.7 24.2 21.0 96 0.5 NNW 9 13 5 7 1008.4 1008.4 14.6
19/09:30pm 21.4 23.3 20.6 95 0.5 WNW 11 17 6 9 1008.0 1008.0 14.4
19/09:00pm 21.6 23.6 20.8 95 0.5 NNW 11 15 6 8 1007.2 1007.2 14.2
19/08:30pm 21.5 22.4 20.1 92 0.9 NNW 15 19 8 10 1006.7 1006.7 14.2
19/08:00pm 21.8 23.5 21.0 95 0.5 WNW 13 17 7 9 1006.9 1006.9 13.8
19/07:30pm 22.0 24.7 21.3 96 0.5 NW 9 15 5 8 1006.7 1006.7 12.8
19/07:04pm 22.1 25.4 21.4 96 0.5 WNW 6 9 3 5 1006.3 1006.3 12.2
19/07:00pm 22.0 25.2 21.3 96 0.5 W 6 11 3 6 1006.3 1006.3 12.0
19/06:54pm 22.0 25.0 21.3 96 0.5 W 7 13 4 7 1006.4 1006.4 11.6
19/06:31pm 22.1 24.9 21.6 97 0.3 W 9 11 5 6 1006.6 1006.6 9.0
19/06:30pm 22.1 24.9 21.6 97 0.3 W 9 11 5 6 1006.5 1006.5 8.8
19/06:00pm 22.1 24.8 21.3 95 0.5 NW 9 11 5 6 1006.7 1006.7 2.4
19/05:59pm 22.2 25.3 21.4 95 0.5 NW 7 11 4 6 1006.7 1006.7 2.0
19/05:30pm 22.3 24.2 21.3 94 0.7 SW 13 17 7 9 1005.9 1005.9 0.2
19/05:00pm 22.1 23.6 20.6 91 1.0 SSE 13 17 7 9 1004.7 1004.7 0.2
19/04:30pm 22.8 23.7 20.1 85 1.7 SSW 15 19 8 10 1005.9 1005.9 0.0
19/04:00pm 23.2 23.6 19.8 81 2.2 SSW 17 24 9 13 1006.0 1006.0 0.0
19/03:30pm 23.9 24.0 20.0 79 2.5 S 19 26 10 14 1006.2 1006.2 0.0
19/03:00pm 24.1 24.4 20.4 80 2.4 SSE 19 24 10 13 1005.9 1005.9 0.0
19/02:30pm 24.0 24.7 20.5 81 2.3 SSE 17 20 9 11 1006.3 1006.3 0.0
19/02:00pm 24.4 24.8 20.9 81 2.3 SSE 20 28 11 15 1006.6 1006.6 0.0
19/01:30pm 25.1 26.5 21.0 78 2.7 SE 15 22 8 12 1007.0 1007.0 0.0
19/01:00pm 25.9 26.4 21.1 75 3.2 SSE 20 30 11 16 1006.5 1006.5 0.0
19/12:30pm 26.1 26.7 21.3 75 3.2 SSE 20 30 11 16 1006.2 1006.2 0.0
19/12:00pm 26.2 26.7 21.2 74 3.3 SSE 20 26 11 14 1006.5 1006.5 0.0
19/11:30am 26.5 28.5 21.5 74 3.3 SE 13 15 7 8 1006.7 1006.7 0.0
19/11:00am 26.2 28.7 21.0 73 3.4 SSW 9 13 5 7 1006.6 1006.6 0.0
19/10:30am 26.2 28.0 21.2 74 3.3 SSW 13 19 7 10 1006.6 1006.6 0.0
19/10:00am 25.4 27.7 21.3 78 2.7 SSW 11 15 6 8 1006.7 1006.7 0.0
19/09:30am 24.8 27.2 20.9 79 2.6 SW 9 17 5 9 1006.9 1006.9 0.0
19/09:00am 24.0 26.4 20.9 83 2.0 SW 9 15 5 8 1006.7 1006.7 0.0
19/08:30am 23.4 26.3 20.7 85 1.8 SSW 6 9 3 5 1006.8 1006.8 0.0
19/08:00am 22.9 26.9 20.6 87 1.5 CALM 0 0 0 0 1007.1 1007.1 0.0
19/07:30am 22.6 25.2 20.5 88 1.4 WSW 7 9 4 5 1006.9 1006.9 0.0
19/07:00am 22.3 24.5 20.4 89 1.2 SW 9 15 5 8 1006.5 1006.5 0.0
19/06:30am 22.1 25.6 20.4 90 1.1 SW 2 7 1 4 1006.1 1006.1 0.0
19/06:00am 21.8 23.2 20.3 91 1.0 SSW 13 17 7 9 1005.8 1005.8 0.0
19/05:30am 21.9 25.8 20.4 91 1.0 CALM 0 0 0 0 1005.5 1005.5 0.0
19/05:00am 21.9 23.7 20.4 91 1.0 S 11 17 6 9 1005.4 1005.4 0.0
19/04:30am 22.4 24.2 21.2 93 0.8 S 13 19 7 10 1004.9 1004.9 0.0
19/04:00am 22.0 24.1 21.0 94 0.7 SW 11 15 6 8 1004.6 1004.6 0.0
19/03:30am 21.5 24.1 20.5 94 0.6 WNW 7 9 4 5 1004.1 1004.1 0.0
19/03:00am 21.5 25.5 20.5 94 0.6 CALM 0 7 0 4 1004.2 1004.2 0.0
19/02:30am 21.5 24.1 20.5 94 0.6 SW 7 9 4 5 1003.8 1003.8 0.0
19/02:00am 21.3 24.5 19.8 91 1.0 SSW 2 11 1 6 1003.4 1003.4 0.0
19/01:30am 21.9 25.6 20.0 89 1.2 CALM 0 0 0 0 1003.5 1003.5 0.0
19/01:00am 22.3 25.1 19.7 85 1.7 SE 4 7 2 4 1003.8 1003.8 0.0
19/12:30am 23.3 26.3 20.1 82 2.1 SE 4 7 2 4 1004.2 1004.2 0.0
19/12:00am 24.8 27.2 20.9 79 2.6 ENE 9 15 5 8 1004.2 1004.2 0.0
 
Date/Time
EDT
Temp
°C
App
Temp
°C
Dew
Point
°C
Rel
Hum
%
Delta-T
°C
Wind Press
QNH
hPa
Press
MSL
hPa
Rain since
9am
mm
Dir  Spd
km/h
Gust
km/h
Spd
kts
Gust
kts
18/11:30pm 25.4 26.8 21.1 77 2.8 NE 15 17 8 9 1004.3 1004.3 0.0
18/11:00pm 25.5 27.7 21.2 77 2.8 W 11 22 6 12 1005.4 1005.4 0.0
18/10:30pm 25.1 26.9 21.2 79 2.6 N 13 17 7 9 1004.5 1004.5 0.0
18/10:00pm 25.4 27.4 21.5 79 2.6 NNE 13 17 7 9 1003.5 1003.5 0.0
18/09:30pm 25.9 26.8 21.6 77 2.9 NNE 19 30 10 16 1003.5 1003.5 0.0
18/09:00pm 25.8 27.6 21.9 79 2.6 NNE 15 22 8 12 1003.1 1003.1 0.0
18/08:30pm 25.9 26.1 22.0 79 2.6 NNE 24 35 13 19 1002.7 1002.7 0.0
18/08:00pm 26.1 27.3 22.2 79 2.6 NNE 19 28 10 15 1002.6 1002.6 0.0
18/07:30pm 26.4 27.8 22.5 79 2.6 NNE 19 28 10 15 1002.8 1002.8 0.0
18/07:00pm 26.9 27.3 22.5 77 3.0 NNE 24 33 13 18 1002.6 1002.6 0.0
18/06:30pm 27.5 27.5 22.4 73 3.4 NNE 26 35 14 19 1002.0 1002.0 0.0
18/06:00pm 28.2 28.4 22.7 72 3.7 NE 26 41 14 22 1002.1 1002.1 0.0
18/05:30pm 28.8 28.1 22.5 68 4.3 NE 30 43 16 23 1002.4 1002.4 0.0
18/05:00pm 29.3 28.9 23.0 69 4.3 NE 30 44 16 24 1002.9 1002.9 0.0
18/04:30pm 29.8 29.9 22.5 65 5.0 NE 26 39 14 21 1003.2 1003.2 0.0
18/04:00pm 29.9 30.4 22.6 65 5.0 NE 24 37 13 20 1003.4 1003.4 0.0
18/03:30pm 29.8 28.8 22.0 63 5.3 NNE 30 39 16 21 1003.8 1003.8 0.0
18/03:00pm 30.4 30.3 22.3 62 5.5 NNE 26 33 14 18 1004.2 1004.2 0.0
18/02:30pm 30.9 31.0 21.9 58 6.1 NNE 24 35 13 19 1004.6 1004.6 0.0
18/02:00pm 30.4 30.7 22.3 62 5.5 NE 24 32 13 17 1005.1 1005.1 0.0
18/01:30pm 30.7 31.8 22.3 61 5.7 NE 20 30 11 16 1005.2 1005.2 0.0
18/01:00pm 30.6 31.8 22.5 62 5.5 NE 20 28 11 15 1005.6 1005.6 0.0
18/12:30pm 30.1 31.2 22.0 62 5.5 NE 19 24 10 13 1006.1 1006.1 0.0
18/12:00pm 28.9 29.7 21.7 65 4.8 ENE 20 24 11 13 1006.5 1006.5 0.0
18/11:30am 28.8 29.8 22.1 67 4.5 ENE 20 26 11 14 1006.9 1006.9 0.0
18/11:00am 28.7 29.8 22.0 67 4.5 ENE 19 24 10 13 1007.3 1007.3 0.0
18/10:30am 28.1 29.5 21.1 65 4.6 N 15 20 8 11 1007.6 1007.6 0.0
18/10:00am 27.2 28.2 21.0 69 4.1 N 17 22 9 12 1007.8 1007.8 0.0
18/09:30am 25.7 26.8 20.5 73 3.4 N 15 20 8 11 1007.8 1007.8 0.0
18/09:00am 24.3 26.0 20.2 78 2.7 N 11 15 6 8 1007.8 1007.8 8.6
18/08:30am 23.1 24.0 20.1 83 1.9 N 15 17 8 9 1007.8 1007.8 8.6
18/08:00am 21.5 21.4 20.0 91 1.0 N 20 28 11 15 1007.8 1007.8 8.6
18/07:30am 20.7 21.8 19.7 94 0.6 NNE 13 17 7 9 1007.5 1007.5 8.6
18/07:00am 20.1 21.2 19.6 97 0.3 NNE 13 15 7 8 1007.5 1007.5 8.6
18/06:30am 19.8 21.5 19.3 97 0.3 NNE 9 13 5 7 1007.5 1007.5 8.6
18/06:02am 19.8 21.5 19.3 97 0.3 NNE 9 11 5 6 1007.4 1007.4 8.6
18/06:00am 19.8 21.5 19.3 97 0.3 NNE 9 11 5 6 1007.3 1007.3 8.6
18/05:30am 19.9 22.0 19.4 97 0.3 N 7 9 4 5 1007.4 1007.4 8.6
18/05:00am 20.2 21.3 19.7 97 0.3 NNE 13 15 7 8 1007.4 1007.4 8.6
18/04:30am 20.4 21.5 19.7 96 0.4 N 13 15 7 8 1007.6 1007.6 8.6
18/04:00am 20.7 21.9 20.0 96 0.4 N 13 15 7 8 1008.1 1008.1 8.6
18/03:30am 20.9 22.6 20.1 95 0.5 N 11 15 6 8 1008.6 1008.6 8.6
18/03:00am 21.1 23.1 19.9 93 0.8 N 9 11 5 6 1009.3 1009.3 8.6
18/02:30am 21.4 22.7 20.2 93 0.8 N 13 17 7 9 1009.5 1009.5 8.6
18/02:00am 21.3 22.5 19.9 92 0.9 NNW 13 17 7 9 1009.6 1009.6 8.6
18/01:30am 21.7 22.4 20.5 93 0.8 NNW 17 24 9 13 1010.1 1010.1 8.6
18/01:00am 22.4 21.4 19.6 84 1.8 N 24 32 13 17 1010.2 1010.2 8.6
18/12:30am 22.9 22.5 19.3 80 2.3 N 20 28 11 15 1009.9 1009.9 8.6
18/12:00am 22.0 21.3 20.3 90 1.1 N 24 32 13 17 1010.5 1010.5 8.6
 
Date/Time
EDT
Temp
°C
App
Temp
°C
Dew
Point
°C
Rel
Hum
%
Delta-T
°C
Wind Press
QNH
hPa
Press
MSL
hPa
Rain since
9am
mm
Dir  Spd
km/h
Gust
km/h
Spd
kts
Gust
kts
17/11:30pm 22.2 23.9 21.0 93 0.8 NNE 13 15 7 8 1012.1 1012.1 8.2
17/11:00pm 22.3 24.4 20.9 92 0.9 WSW 11 15 6 8 1013.9 1013.9 7.2
17/10:30pm 23.0 24.3 21.6 92 0.9 W 17 24 9 13 1014.7 1014.7 5.2
17/10:00pm 23.3 26.1 22.3 94 0.7 W 11 17 6 9 1014.7 1014.7 3.4
17/09:30pm 23.5 26.4 21.8 90 1.1 NNW 9 13 5 7 1014.4 1014.4 1.4
17/09:00pm 24.6 25.6 21.1 81 2.3 WNW 17 24 9 13 1013.5 1013.5 0.0
17/08:54pm 24.8 26.6 21.1 80 2.4 NNW 13 20 7 11 1012.4 1012.4 0.0
17/08:30pm 25.0 26.0 21.1 79 2.6 NNE 17 22 9 12 1010.3 1010.3 0.0
17/08:00pm 25.2 26.6 21.1 78 2.7 NNE 15 24 8 13 1009.8 1009.8 0.0
17/07:30pm 25.4 26.4 21.1 77 2.8 NNE 17 22 9 12 1009.2 1009.2 0.0
17/07:00pm 25.7 26.3 21.4 77 2.9 N 20 28 11 15 1009.1 1009.1 0.0
17/06:30pm 25.6 26.7 21.9 80 2.5 N 19 24 10 13 1008.7 1008.7 0.0
17/06:00pm 25.7 27.5 21.8 79 2.6 NNE 15 22 8 12 1009.1 1009.1 0.0
17/05:30pm 25.2 26.0 21.7 81 2.3 N 20 28 11 15 1009.8 1009.8 0.0
17/05:00pm 26.1 26.6 21.1 74 3.3 NNE 20 30 11 16 1010.6 1010.6 0.0
17/04:30pm 26.4 25.8 21.2 73 3.4 NNE 26 37 14 20 1010.1 1010.1 0.0
17/04:00pm 26.3 26.0 21.9 77 2.9 NNE 26 39 14 21 1009.8 1009.8 0.0
17/03:30pm 25.4 24.8 21.3 78 2.7 NE 26 37 14 20 1009.7 1009.7 0.0
17/03:00pm 26.1 25.3 20.9 73 3.4 NE 26 33 14 18 1010.1 1010.1 0.0

Other Formats:

Comma delimited format used in spreadsheet applications
http://www.bom.gov.au/fwo/IDN60801/IDN60801.94786.axf

JavaScript Object Notation format (JSON) in row-major order
http://www.bom.gov.au/fwo/IDN60801/IDN60801.94786.json